Wetterdaten: aktuell Samstag, 04.02.2023 04:05
Datum Zeit Temp. A. Feuchte A. Luftdruck Regen Wind Richtung Richtung Taupunkt Windchill Windben
04.02.2023 04:05 -2,0 C 97 % 1025,8 hPa 0,0 l/m 6,4 km/h (2 Bft) N-NO 18 -2,4 C -2,0 C 17,7 km/h (3 Bft)
04.02.2023 04:01 -1,9 C 97 % 1025,7 hPa 0,2 l/m 7,2 km/h (2 Bft) W-NW 291 -2,3 C -2,8 C 20,9 km/h (4 Bft)
04.02.2023 03:55 -1,8 C 97 % 1025,6 hPa 0,0 l/m 5,4 km/h (1 Bft) NO 41 -2,2 C -1,8 C 9,7 km/h (2 Bft)
04.02.2023 03:50 -1,8 C 97 % 1025,4 hPa 0,0 l/m 6,2 km/h (2 Bft) NO 53 -2,2 C -1,8 C 19,3 km/h (3 Bft)
04.02.2023 03:45 -1,8 C 97 % 1025,3 hPa 0,2 l/m 7,6 km/h (2 Bft) O 88 -2,2 C -3,1 C 20,9 km/h (4 Bft)
04.02.2023 03:40 -1,7 C 97 % 1025,0 hPa 0,0 l/m 7,6 km/h (2 Bft) S 179 -2,1 C -3,0 C 17,7 km/h (3 Bft)
04.02.2023 03:35 -1,7 C 97 % 1025,0 hPa 0,0 l/m 8,6 km/h (2 Bft) N-NW 343 -2,1 C -4,0 C 22,5 km/h (4 Bft)
04.02.2023 03:31 -1,7 C 97 % 1024,9 hPa 0,0 l/m 7,7 km/h (2 Bft) O 92 -2,1 C -3,1 C 22,5 km/h (4 Bft)
04.02.2023 03:25 -1,6 C 97 % 1024,8 hPa 0,2 l/m 5,7 km/h (1 Bft) S-SW 207 -2,0 C -1,6 C 20,9 km/h (4 Bft)
04.02.2023 03:20 -1,5 C 97 % 1024,8 hPa 0,0 l/m 7,7 km/h (2 Bft) W-NW 291 -1,9 C -2,9 C 19,3 km/h (3 Bft)
04.02.2023 03:15 -1,4 C 96 % 1024,5 hPa 0,2 l/m 5,2 km/h (1 Bft) N-NW 328 -2,0 C -1,4 C 16,1 km/h (3 Bft)
04.02.2023 03:10 -1,3 C 97 % 1024,3 hPa 0,0 l/m 5,7 km/h (1 Bft) NO 45 -1,7 C -1,3 C 16,1 km/h (3 Bft)
04.02.2023 03:05 -1,2 C 96 % 1024,3 hPa 0,2 l/m 6,8 km/h (2 Bft) N-NW 338 -1,8 C -1,6 C 16,1 km/h (3 Bft)
04.02.2023 03:01 -1,1 C 96 % 1024,1 hPa 0,2 l/m 7,7 km/h (2 Bft) NO 35 -1,7 C -2,5 C 25,7 km/h (4 Bft)
04.02.2023 02:55 -0,9 C 96 % 1023,9 hPa 0,2 l/m 6,5 km/h (2 Bft) W-NW 292 -1,5 C -1,0 C 20,9 km/h (4 Bft)
04.02.2023 02:50 -0,7 C 97 % 1023,9 hPa 0,2 l/m 5,4 km/h (1 Bft) N-NW 340 -1,1 C -0,7 C 14,5 km/h (3 Bft)
04.02.2023 02:45 -0,6 C 97 % 1023,6 hPa 0,0 l/m 6,8 km/h (2 Bft) SO 138 -1,0 C -1,0 C 24,1 km/h (4 Bft)
04.02.2023 02:40 -0,4 C 97 % 1023,4 hPa 0,4 l/m 5,3 km/h (1 Bft) NO 43 -0,8 C -0,4 C 17,7 km/h (3 Bft)
04.02.2023 02:35 -0,3 C 97 % 1023,2 hPa 0,2 l/m 4,1 km/h (1 Bft) W-NW 296 -0,7 C -0,3 C 12,9 km/h (3 Bft)
04.02.2023 02:30 -0,3 C 97 % 1023,0 hPa 0,0 l/m 6,8 km/h (2 Bft) NO 56 -0,7 C -0,7 C 20,9 km/h (4 Bft)
04.02.2023 02:25 -0,3 C 97 % 1022,7 hPa 0,4 l/m 4,6 km/h (1 Bft) O-NO 68 -0,7 C -0,3 C 14,5 km/h (3 Bft)
04.02.2023 02:20 -0,2 C 97 % 1022,5 hPa 0,2 l/m 6,1 km/h (2 Bft) NW 306 -0,6 C -0,2 C 17,7 km/h (3 Bft)
04.02.2023 02:15 -0,2 C 97 % 1022,2 hPa 0,0 l/m 6,8 km/h (2 Bft) W-SW 243 -0,6 C -0,6 C 20,9 km/h (4 Bft)
04.02.2023 02:10 -0,2 C 97 % 1022,1 hPa 0,2 l/m 8,3 km/h (2 Bft) W-NW 302 -0,6 C -2,1 C 29,0 km/h (5 Bft)
04.02.2023 02:05 -0,2 C 97 % 1022,1 hPa 0,0 l/m 4,4 km/h (1 Bft) W-SW 244 -0,6 C -0,2 C 12,9 km/h (3 Bft)
04.02.2023 02:01 -0,2 C 97 % 1022,1 hPa 0,2 l/m 6,2 km/h (2 Bft) W-NW 303 -0,6 C -0,2 C 24,1 km/h (4 Bft)
04.02.2023 01:55 -0,2 C 97 % 1022,1 hPa 0,0 l/m 7,7 km/h (2 Bft) SW 233 -0,6 C -1,6 C 25,7 km/h (4 Bft)
04.02.2023 01:50 -0,2 C 96 % 1021,9 hPa 0,2 l/m 5,6 km/h (1 Bft) W-SW 242 -0,8 C -0,2 C 17,7 km/h (3 Bft)
04.02.2023 01:45 -0,1 C 96 % 1022,1 hPa 0,2 l/m 7,5 km/h (2 Bft) SW 214 -0,7 C -1,2 C 17,7 km/h (3 Bft)
04.02.2023 01:40 -0,2 C 96 % 1021,9 hPa 0,0 l/m 5,8 km/h (2 Bft) W-NW 285 -0,8 C -0,2 C 16,1 km/h (3 Bft)
04.02.2023 01:35 -0,2 C 96 % 1022,0 hPa 0,2 l/m 10,1 km/h (2 Bft) W-NW 296 -0,8 C -3,8 C 22,5 km/h (4 Bft)
04.02.2023 01:30 -0,1 C 96 % 1022,0 hPa 0,0 l/m 6,3 km/h (2 Bft) W 266 -0,7 C -0,1 C 20,9 km/h (4 Bft)
04.02.2023 01:25 -0,2 C 96 % 1021,9 hPa 0,2 l/m 7,0 km/h (2 Bft) O-NO 60 -0,8 C -0,8 C 22,5 km/h (4 Bft)
04.02.2023 01:20 -0,2 C 97 % 1022,0 hPa 0,0 l/m 8,9 km/h (2 Bft) N-NW 341 -0,6 C -2,7 C 25,7 km/h (4 Bft)
04.02.2023 01:15 -0,2 C 96 % 1022,1 hPa 0,2 l/m 9,5 km/h (2 Bft) NW 313 -0,8 C -3,2 C 22,5 km/h (4 Bft)
04.02.2023 01:11 -0,2 C 96 % 1021,8 hPa 0,2 l/m 5,3 km/h (1 Bft) SO 146 -0,8 C -0,2 C 16,1 km/h (3 Bft)
04.02.2023 01:05 -0,2 C 96 % 1021,9 hPa 0,2 l/m 5,2 km/h (1 Bft) N-NO 13 -0,8 C -0,2 C 17,7 km/h (3 Bft)
04.02.2023 01:00 -0,2 C 96 % 1021,9 hPa 0,2 l/m 6,6 km/h (2 Bft) W-SW 245 -0,8 C -0,4 C 24,1 km/h (4 Bft)
04.02.2023 00:55 -0,2 C 96 % 1021,8 hPa 0,0 l/m 5,9 km/h (2 Bft) N-NW 339 -0,8 C -0,2 C 22,5 km/h (4 Bft)
04.02.2023 00:50 -0,2 C 96 % 1021,6 hPa 0,2 l/m 8,9 km/h (2 Bft) SO 142 -0,8 C -2,7 C 32,2 km/h (5 Bft)
04.02.2023 00:45 -0,2 C 96 % 1021,8 hPa 0,2 l/m 8,6 km/h (2 Bft) W-NW 302 -0,8 C -2,4 C 24,1 km/h (4 Bft)
04.02.2023 00:40 -0,1 C 96 % 1021,8 hPa 0,2 l/m 9,6 km/h (2 Bft) NW 317 -0,7 C -3,2 C 22,5 km/h (4 Bft)
04.02.2023 00:35 -0,2 C 96 % 1021,7 hPa 0,0 l/m 6,5 km/h (2 Bft) W-SW 247 -0,8 C -0,3 C 16,1 km/h (3 Bft)
04.02.2023 00:30 -0,1 C 96 % 1021,8 hPa 0,2 l/m 6,4 km/h (2 Bft) NW 308 -0,7 C -0,1 C 20,9 km/h (4 Bft)
04.02.2023 00:25 -0,1 C 96 % 1021,8 hPa 0,2 l/m 8,4 km/h (2 Bft) S-SW 211 -0,7 C -2,1 C 30,6 km/h (5 Bft)
04.02.2023 00:20 -0,1 C 96 % 1021,8 hPa 0,2 l/m 8,8 km/h (2 Bft) S 180 -0,7 C -2,5 C 22,5 km/h (4 Bft)
04.02.2023 00:15 -0,1 C 96 % 1021,9 hPa 0,0 l/m 8,1 km/h (2 Bft) W 280 -0,7 C -1,8 C 17,7 km/h (3 Bft)
04.02.2023 00:10 -0,1 C 96 % 1021,9 hPa 0,2 l/m 6,0 km/h (2 Bft) W-NW 302 -0,7 C -0,1 C 19,3 km/h (3 Bft)
04.02.2023 00:05 -0,1 C 95 % 1021,8 hPa 0,0 l/m 5,9 km/h (2 Bft) W 274 -0,8 C -0,1 C 14,5 km/h (3 Bft)
04.02.2023 00:00 -0,1 C 96 % 1021,6 hPa 0,2 l/m 6,5 km/h (2 Bft) W-NW 294 -0,7 C -0,2 C 17,7 km/h (3 Bft)
03.02.2023 23:57 0,0 C 96 % 1021,6 hPa 0,2 l/m 7,0 km/h (2 Bft) W-NW 294 -0,6 C -0,6 C 30,6 km/h (5 Bft)
03.02.2023 23:50 0,0 C 95 % 1021,7 hPa 0,2 l/m 7,5 km/h (2 Bft) W-SW 244 -0,7 C -1,1 C 22,5 km/h (4 Bft)
03.02.2023 23:46 0,1 C 95 % 1021,6 hPa 0,2 l/m 7,5 km/h (2 Bft) S-SO 150 -0,6 C -1,0 C 27,4 km/h (4 Bft)
03.02.2023 23:40 0,1 C 95 % 1021,5 hPa 0,2 l/m 5,8 km/h (2 Bft) S 181 -0,6 C 0,1 C 17,7 km/h (3 Bft)
03.02.2023 23:35 0,1 C 95 % 1021,4 hPa 0,2 l/m 9,3 km/h (2 Bft) W-SW 244 -0,6 C -2,7 C 29,0 km/h (5 Bft)
03.02.2023 23:30 0,1 C 95 % 1021,2 hPa 0,2 l/m 6,4 km/h (2 Bft) W-SW 240 -0,6 C 0,1 C 20,9 km/h (4 Bft)
03.02.2023 23:26 0,2 C 95 % 1021,2 hPa 0,2 l/m 5,8 km/h (2 Bft) O-SO 107 -0,5 C 0,2 C 22,5 km/h (4 Bft)
03.02.2023 23:20 0,2 C 95 % 1021,0 hPa 0,0 l/m 9,3 km/h (2 Bft) W-NW 291 -0,5 C -2,6 C 24,1 km/h (4 Bft)
03.02.2023 23:15 0,2 C 94 % 1021,0 hPa 0,2 l/m 6,6 km/h (2 Bft) N-NO 16 -0,6 C 0,0 C 19,3 km/h (3 Bft)
03.02.2023 23:10 0,2 C 94 % 1020,9 hPa 0,0 l/m 6,2 km/h (2 Bft) O-SO 110 -0,6 C 0,2 C 17,7 km/h (3 Bft)
03.02.2023 23:08 0,2 C 94 % 1020,9 hPa 0,2 l/m 6,9 km/h (2 Bft) W-NW 292 -0,6 C -0,3 C 19,3 km/h (3 Bft)
03.02.2023 23:00 0,3 C 94 % 1020,8 hPa 0,0 l/m 7,8 km/h (2 Bft) N-NO 28 -0,5 C -1,1 C 17,7 km/h (3 Bft)
03.02.2023 22:57 0,3 C 94 % 1021,0 hPa 0,4 l/m 6,8 km/h (2 Bft) NW 311 -0,5 C -0,1 C 24,1 km/h (4 Bft)
03.02.2023 22:50 0,3 C 94 % 1020,7 hPa 0,0 l/m 6,2 km/h (2 Bft) O 90 -0,5 C 0,3 C 20,9 km/h (4 Bft)
03.02.2023 22:46 0,3 C 94 % 1020,6 hPa 0,2 l/m 6,3 km/h (2 Bft) O-SO 114 -0,5 C 0,3 C 17,7 km/h (3 Bft)
03.02.2023 22:40 0,3 C 94 % 1020,7 hPa 0,0 l/m 7,5 km/h (2 Bft) N-NW 329 -0,5 C -0,8 C 19,3 km/h (3 Bft)
03.02.2023 22:35 0,3 C 93 % 1020,8 hPa 0,2 l/m 8,4 km/h (2 Bft) W 265 -0,7 C -1,7 C 25,7 km/h (4 Bft)
03.02.2023 22:30 0,3 C 93 % 1020,7 hPa 0,0 l/m 4,3 km/h (1 Bft) N-NW 327 -0,7 C 0,3 C 12,9 km/h (3 Bft)
03.02.2023 22:27 0,3 C 93 % 1020,8 hPa 0,2 l/m 10,4 km/h (2 Bft) NW 310 -0,7 C -3,4 C 30,6 km/h (5 Bft)
03.02.2023 22:20 0,4 C 93 % 1020,9 hPa 0,0 l/m 7,2 km/h (2 Bft) W-SW 251 -0,6 C -0,4 C 17,7 km/h (3 Bft)
03.02.2023 22:16 0,4 C 93 % 1020,9 hPa 0,0 l/m 7,3 km/h (2 Bft) W-NW 295 -0,6 C -0,5 C 20,9 km/h (4 Bft)
03.02.2023 22:10 0,4 C 92 % 1020,9 hPa 0,2 l/m 9,2 km/h (2 Bft) SW 223 -0,7 C -2,3 C 22,5 km/h (4 Bft)
03.02.2023 22:05 0,5 C 92 % 1021,1 hPa 0,0 l/m 7,1 km/h (2 Bft) S-SW 207 -0,6 C -0,2 C 16,1 km/h (3 Bft)
03.02.2023 22:00 0,6 C 92 % 1020,9 hPa 0,0 l/m 11,0 km/h (2 Bft) NW 307 -0,5 C -3,6 C 33,8 km/h (5 Bft)
03.02.2023 21:55 0,6 C 92 % 1020,9 hPa 0,0 l/m 8,6 km/h (2 Bft) SW 232 -0,5 C -1,6 C 22,5 km/h (4 Bft)
03.02.2023 21:50 0,7 C 92 % 1021,0 hPa 0,2 l/m 8,0 km/h (2 Bft) SW 233 -0,4 C -0,9 C 32,2 km/h (5 Bft)
03.02.2023 21:46 0,7 C 92 % 1020,9 hPa 0,0 l/m 7,5 km/h (2 Bft) W-SW 252 -0,4 C -0,4 C 19,3 km/h (3 Bft)
03.02.2023 21:40 0,7 C 91 % 1020,8 hPa 0,0 l/m 5,0 km/h (1 Bft) S-SW 209 -0,6 C 0,7 C 12,9 km/h (3 Bft)
03.02.2023 21:35 0,7 C 91 % 1020,9 hPa 0,0 l/m 9,8 km/h (2 Bft) S-SW 209 -0,6 C -2,5 C 20,9 km/h (4 Bft)
03.02.2023 21:31 0,6 C 91 % 1021,0 hPa 0,0 l/m 6,2 km/h (2 Bft) S 171 -0,7 C 0,6 C 20,9 km/h (4 Bft)
03.02.2023 21:25 0,6 C 91 % 1020,7 hPa 0,0 l/m 9,2 km/h (2 Bft) S 188 -0,7 C -2,1 C 27,4 km/h (4 Bft)
03.02.2023 21:20 0,7 C 91 % 1020,8 hPa 0,0 l/m 10,0 km/h (2 Bft) NW 313 -0,6 C -2,7 C 33,8 km/h (5 Bft)
03.02.2023 21:15 0,7 C 91 % 1021,0 hPa 0,0 l/m 10,0 km/h (2 Bft) N-NO 19 -0,6 C -2,7 C 32,2 km/h (5 Bft)
03.02.2023 21:10 0,7 C 92 % 1021,1 hPa 0,0 l/m 7,8 km/h (2 Bft) NW 310 -0,4 C -0,7 C 19,3 km/h (3 Bft)
03.02.2023 21:05 0,8 C 91 % 1021,2 hPa 0,0 l/m 6,1 km/h (2 Bft) N 350 -0,5 C 0,8 C 16,1 km/h (3 Bft)
03.02.2023 21:00 0,8 C 92 % 1021,0 hPa 0,2 l/m 7,0 km/h (2 Bft) W 269 -0,3 C 0,2 C 19,3 km/h (3 Bft)
03.02.2023 20:55 0,8 C 92 % 1021,0 hPa 0,0 l/m 5,0 km/h (1 Bft) NW 315 -0,3 C 0,8 C 14,5 km/h (3 Bft)
03.02.2023 20:50 0,8 C 92 % 1021,1 hPa 0,0 l/m 8,2 km/h (2 Bft) O 96 -0,3 C -1,0 C 22,5 km/h (4 Bft)
03.02.2023 20:45 0,8 C 92 % 1021,0 hPa 0,2 l/m 7,5 km/h (2 Bft) O 80 -0,3 C -0,3 C 24,1 km/h (4 Bft)
03.02.2023 20:41 0,9 C 92 % 1021,1 hPa 0,0 l/m 7,6 km/h (2 Bft) S-SW 192 -0,2 C -0,3 C 24,1 km/h (4 Bft)
03.02.2023 20:35 0,9 C 93 % 1021,2 hPa 0,0 l/m 6,7 km/h (2 Bft) W 278 -0,1 C 0,6 C 17,7 km/h (3 Bft)
03.02.2023 20:30 1,0 C 93 % 1020,9 hPa 0,0 l/m 6,9 km/h (2 Bft) O-SO 119 -0,0 C 0,5 C 25,7 km/h (4 Bft)
03.02.2023 20:25 1,1 C 93 % 1020,8 hPa 0,0 l/m 7,2 km/h (2 Bft) NW 319 0,1 C 0,3 C 33,8 km/h (5 Bft)
03.02.2023 20:20 1,1 C 93 % 1020,6 hPa 0,0 l/m 7,1 km/h (2 Bft) W-NW 284 0,1 C 0,4 C 17,7 km/h (3 Bft)
03.02.2023 20:16 1,1 C 93 % 1020,7 hPa 0,0 l/m 9,6 km/h (2 Bft) O-NO 67 0,1 C -1,9 C 35,4 km/h (5 Bft)
03.02.2023 20:10 1,2 C 93 % 1020,7 hPa 0,0 l/m 9,6 km/h (2 Bft) N 5 0,2 C -1,8 C 24,1 km/h (4 Bft)
03.02.2023 20:05 1,2 C 93 % 1020,2 hPa 0,0 l/m 5,9 km/h (2 Bft) NW 306 0,2 C 1,2 C 14,5 km/h (3 Bft)
03.02.2023 20:00 1,2 C 93 % 1020,3 hPa 0,0 l/m 5,7 km/h (1 Bft) O 82 0,2 C 1,2 C 22,5 km/h (4 Bft)
03.02.2023 19:55 1,2 C 93 % 1020,0 hPa 0,2 l/m 10,3 km/h (2 Bft) O-SO 113 0,2 C -2,4 C 30,6 km/h (5 Bft)
03.02.2023 19:50 1,2 C 94 % 1019,9 hPa 0,0 l/m 6,3 km/h (2 Bft) NW 313 0,3 C 1,2 C 17,7 km/h (3 Bft)
_ Min-Zeit 04:05 21:05 15:00 - 02:35 - - 04:05 10:05 03:55
Minimum _ -2,0 C 91 % 1015,4 hPa - 4,1 km/h (1 Bft) - - -2,4 C -6,8 C 9,7 km/h (2 Bft)
_ Max-Zeit 12:10 01:20 04:05 09:40 13:00 - - 12:15 15:25 11:40
Maximum _ 2,6 C 97 % 1025,8 hPa 0,4 l/m 20,9 km/h
SW (4 Bft)
- - 1,7 C 1,8 C 48,3 km/h
W (6 Bft)
Durchschnitt _ 1,3 C 94 % 1020,4 hPa #22,2 l/m 10,4 km/h (2 Bft) SW - 0,5 C -2,0 C 26,1 km/h (4 Bft)